Sarepta, Louisiana
Current Conditions -  °F | °C
As of 12:35 PM on Sunday 21 Dec 2014 (Local Time) from KMNE Reporting Station
Clear Clear  
Wind Chill: 57°   Ceiling: Unl
Heat Index: 57°   Visibility: 10mi
Dew Point: 43°   Wind: 5mph
Humidity: 59%   Direction: 210°SSW
Pressure: 30.07"   Gusts: NA
Location:  32.89°N, 93.45°W
Report Text: KMNE 211835Z AUTO 21004KT 10SM CLR 14/06 A3007 RMK AO2
Loading
Personal Weather Stations






























Interactive Weather Map New forecast layout! Learn more

10-Day Weather Forecast

Advertisements
Track Severe Weather on mobile